Time;durP1;ratioP1;P1;durP2;ratioP2;P2;SDS_P1;SDS_P2;PMS_P1;PMS_P2;Temp;Humidity;BMP_temperature;BMP_pressure;BME280_temperature;BME280_humidity;BME280_pressure;Samples;Min_cycle;Max_cycle;Signal;HPM_P1;HPM_P2
2022/02/10 00:03:36;;;;;;;33.97;17.30;;;;;;;8.02;100.00;102116.91;4975242;28;20577;-67
2022/02/10 00:06:11;;;;;;;37.15;16.85;;;;;;;8.01;100.00;102104.59;4974306;28;20042;-67
2022/02/10 00:35:21;;;;;;;32.78;18.02;;;;;;;7.92;100.00;102078.34;4936690;29;20059;-68
2022/02/10 00:37:59;;;;;;;36.45;18.73;;;;;;;7.92;100.00;102077.50;4935109;29;20124;-68
2022/02/10 00:40:27;;;;;;;33.08;17.60;;;;;;;7.90;100.00;102072.22;4935305;29;20032;-67
2022/02/10 00:42:57;;;;;;;38.28;18.58;;;;;;;7.87;100.00;102064.34;4934658;29;20712;-68
2022/02/10 00:45:26;;;;;;;35.90;18.10;;;;;;;7.86;100.00;102062.59;4935892;29;20036;-68
2022/02/10 00:47:55;;;;;;;34.40;17.55;;;;;;;7.85;100.00;102064.38;4935122;29;20023;-67
2022/02/10 00:50:23;;;;;;;37.67;18.48;;;;;;;7.83;100.00;102055.59;4957560;28;20041;-68
2022/02/10 00:52:50;;;;;;;37.40;18.23;;;;;;;7.82;100.00;102060.91;5028320;28;20474;-68
2022/02/10 00:55:22;;;;;;;41.67;19.17;;;;;;;7.79;100.00;102063.59;5017377;28;20026;-67
2022/02/10 00:57:47;;;;;;;37.15;19.48;;;;;;;7.77;100.00;102060.09;5034167;28;20461;-67
2022/02/10 01:00:48;;;;;;;35.53;19.83;;;;;;;7.77;100.00;102060.09;5034303;28;20032;-68
2022/02/10 01:11:23;;;;;;;36.50;19.65;;;;;;;7.69;100.00;102033.84;5054169;28;20090;-67
2022/02/10 01:13:58;;;;;;;40.85;20.23;;;;;;;7.65;100.00;102035.63;5035774;28;20478;-67
2022/02/10 01:29:32;;;;;;;38.97;19.52;;;;;;;7.58;100.00;102031.31;5021767;28;20045;-68
2022/02/10 01:30:05;;;;;;;39.75;19.55;;;;;;;7.55;100.00;102018.19;5033782;28;20111;-67
2022/02/10 01:32:30;;;;;;;42.92;19.52;;;;;;;7.57;100.00;102013.78;5033637;28;20021;-67
2022/02/10 01:34:55;;;;;;;44.80;20.45;;;;;;;7.53;100.00;102017.34;5021725;28;20092;-65
2022/02/10 01:37:21;;;;;;;37.63;19.05;;;;;;;7.53;100.00;102007.69;5013898;28;20053;-67
2022/02/10 01:40:00;;;;;;;45.38;20.73;;;;;;;7.51;100.00;102000.69;5030849;28;20043;-66
2022/02/10 02:03:49;;;;;;;38.28;18.27;;;;;;;7.49;100.00;101973.47;5033430;28;20090;-70
2022/02/10 02:06:23;;;;;;;40.58;18.38;;;;;;;7.46;100.00;101971.75;5024910;28;20030;-68
2022/02/10 02:08:48;;;;;;;42.15;19.48;;;;;;;7.45;100.00;101956.81;5013367;28;20041;-67
2022/02/10 02:11:13;;;;;;;44.17;19.00;;;;;;;7.40;100.00;101957.78;5025472;28;20029;-68
2022/02/10 02:13:38;;;;;;;39.30;19.83;;;;;;;7.41;100.00;101965.66;5033254;28;20107;-68
2022/02/10 02:16:05;;;;;;;43.67;18.85;;;;;;;7.39;100.00;101956.91;5029186;28;20029;-67
2022/02/10 02:18:30;;;;;;;42.13;18.48;;;;;;;7.37;100.00;101946.38;5013136;28;20466;-68
2022/02/10 02:20:57;;;;;;;43.50;18.98;;;;;;;7.36;100.00;101955.19;5018930;28;20030;-67
2022/02/10 02:23:25;;;;;;;38.10;18.83;;;;;;;7.34;100.00;101954.34;5032714;28;20033;-68
2022/02/10 02:25:57;;;;;;;44.33;19.50;;;;;;;7.32;100.00;101958.75;5032542;28;20022;-68
2022/02/10 02:28:24;;;;;;;43.95;19.63;;;;;;;7.35;100.00;101960.47;5031565;28;20037;-68
2022/02/10 02:30:57;;;;;;;47.95;20.00;;;;;;;7.28;100.00;101954.44;5032822;28;20021;-67
2022/02/10 03:08:19;;;;;;;54.75;20.52;;;;;;;7.30;100.00;101899.97;5013561;28;20108;-68
2022/02/10 03:13:24;;;;;;;54.20;21.77;;;;;;;7.27;100.00;101899.97;5012474;28;20088;-68
2022/02/10 04:15:03;;;;;;;62.97;23.77;;;;;;;7.20;100.00;101898.34;5014640;28;20530;-68
2022/02/10 04:20:41;;;;;;;64.40;23.05;;;;;;;7.18;100.00;101894.84;5036450;28;20037;-67
2022/02/10 04:23:04;;;;;;;57.28;22.58;;;;;;;7.19;100.00;101896.59;5034683;28;20110;-68
2022/02/10 04:42:55;;;;;;;19.48;8.20;;;;;;;6.88;100.00;101907.53;5014882;28;20048;-69
2022/02/10 04:58:38;;;;;;;9.98;5.22;;;;;;;6.53;100.00;101891.25;5026661;28;20037;-67
2022/02/10 05:04:15;;;;;;;11.25;5.63;;;;;;;6.50;100.00;101893.91;5033792;28;20492;-68
2022/02/10 05:20:05;;;;;;;13.80;6.80;;;;;;;6.37;100.00;101898.44;5022850;28;20437;-68
2022/02/10 05:33:40;;;;;;;13.65;7.38;;;;;;;6.35;100.00;101909.84;5024905;28;20095;-71
2022/02/10 05:36:09;;;;;;;13.25;7.45;;;;;;;6.32;100.00;101904.66;5033763;28;20022;-68
2022/02/10 05:38:40;;;;;;;17.08;7.25;;;;;;;6.31;100.00;101902.91;5033577;28;20021;-68
2022/02/10 05:41:47;;;;;;;16.87;8.10;;;;;;;6.34;100.00;101897.59;5015672;28;20114;-68
2022/02/10 05:44:08;;;;;;;15.75;7.93;;;;;;;6.32;100.00;101902.88;5022583;28;20160;-68
2022/02/10 06:43:59;;;;;;;9.60;3.90;;;;;;;5.83;100.00;101943.59;5032718;28;20037;-69
2022/02/10 06:55:20;;;;;;;14.02;3.92;;;;;;;5.90;100.00;101955.78;5032114;28;20052;-68
2022/02/10 07:51:37;;;;;;;12.43;3.42;;;;;;;6.27;100.00;101978.34;5036833;28;20044;-70
2022/02/10 09:06:13;;;;;;;11.53;3.10;;;;;;;7.38;100.00;102052.69;5038393;28;20103;-65
2022/02/10 09:22:26;;;;;;;9.63;2.70;;;;;;;8.24;98.33;102066.47;5014287;28;20038;-64
2022/02/10 09:55:20;;;;;;;6.35;2.10;;;;;;;8.97;86.67;102068.78;5033085;28;20163;-64
2022/02/10 10:03:12;;;;;;;14.57;4.88;;;;;;;8.71;88.82;102085.09;5018188;28;20473;-65
2022/02/10 10:05:52;;;;;;;8.02;2.38;;;;;;;8.66;89.09;102087.81;5033193;28;20022;-66
2022/02/10 10:11:19;;;;;;;8.75;2.78;;;;;;;8.45;89.57;102090.78;5052492;28;20040;-65
2022/02/10 10:14:07;;;;;;;10.32;3.45;;;;;;;8.37;90.38;102099.66;5052477;28;20098;-65
2022/02/10 10:19:13;;;;;;;9.38;2.85;;;;;;;8.56;89.99;102091.50;5051512;28;20372;-65
2022/02/10 10:21:47;;;;;;;7.30;2.70;;;;;;;8.48;89.39;102098.69;5013547;28;20061;-63
2022/02/10 10:49:42;;;;;;;8.05;2.88;;;;;;;9.03;87.69;102102.16;5015390;28;20092;-64
2022/02/10 10:57:30;;;;;;;4.40;1.88;;;;;;;9.48;81.63;102115.38;5019352;28;20040;-66
2022/02/10 11:22:21;;;;;;;8.52;2.65;;;;;;;10.01;75.52;102111.66;5014473;28;20109;-67
2022/02/10 11:36:37;;;;;;;10.20;3.10;;;;;;;10.06;71.61;102106.28;5035188;28;20083;-67
2022/02/10 11:39:08;;;;;;;9.88;2.22;;;;;;;9.90;73.26;102114.53;5035787;28;20080;-64
2022/02/10 11:41:46;;;;;;;11.45;2.60;;;;;;;9.80;74.61;102107.72;5031468;28;20486;-66
2022/02/10 11:44:38;;;;;;;7.20;2.55;;;;;;;9.73;75.62;102104.34;5028277;28;20392;-66
2022/02/10 12:33:47;;;;;;;12.35;2.47;;;;;;;9.22;74.77;102112.38;4990799;28;20045;-68
2022/02/10 13:32:05;;;;;;;8.23;2.15;;;;;;;8.58;72.72;102086.19;5032796;28;20043;-68
2022/02/10 14:10:23;;;;;;;12.73;1.98;;;;;;;8.78;68.59;102094.66;5029732;28;20102;-63
2022/02/10 14:12:53;;;;;;;6.78;1.55;;;;;;;8.84;70.16;102091.03;5031171;28;20072;-62
2022/02/10 14:20:55;;;;;;;8.85;1.80;;;;;;;8.71;68.33;102097.41;5009484;28;20498;-64
2022/02/10 14:26:04;;;;;;;8.00;1.50;;;;;;;8.59;68.69;102095.88;5010102;28;20080;-64
2022/02/10 14:28:31;;;;;;;8.05;1.90;;;;;;;8.53;70.08;102108.25;5004889;28;20479;-63
2022/02/10 14:30:58;;;;;;;12.82;2.22;;;;;;;8.54;69.15;102095.94;5006382;28;20402;-64
2022/02/10 14:33:27;;;;;;;13.77;2.22;;;;;;;8.53;70.04;102110.91;5000817;28;20427;-65
2022/02/10 14:35:59;;;;;;;12.05;2.03;;;;;;;8.43;69.98;102111.06;4990210;28;20500;-66
2022/02/10 14:38:43;;;;;;;9.05;2.00;;;;;;;8.41;70.29;102104.91;4996601;28;20029;-62
2022/02/10 15:11:26;;;;;;;12.00;2.05;;;;;;;7.51;74.13;102124.56;5025459;28;20109;-63
2022/02/10 15:36:14;;;;;;;6.88;1.92;;;;;;;7.13;75.48;102128.47;4941076;29;20130;-64
2022/02/10 15:47:13;;;;;;;13.57;2.40;;;;;;;6.97;75.52;102114.56;4948374;28;20082;-64
2022/02/10 16:11:02;;;;;;;9.70;1.70;;;;;;;6.65;74.59;102111.34;4993667;28;20041;-64
2022/02/10 16:16:51;;;;;;;8.52;1.70;;;;;;;6.61;75.59;102109.63;4981499;28;20095;-64
2022/02/10 16:19:06;;;;;;;8.73;1.63;;;;;;;6.58;75.40;102104.38;4997837;28;20124;-65
2022/02/10 16:21:45;;;;;;;10.40;1.90;;;;;;;6.56;75.72;102103.53;4993018;28;20050;-64
2022/02/10 16:24:19;;;;;;;9.68;2.05;;;;;;;6.55;76.40;102107.03;4996102;28;20082;-63
2022/02/10 16:26:59;;;;;;;13.80;2.00;;;;;;;6.54;76.35;102106.16;5013182;28;20030;-65
2022/02/10 16:29:29;;;;;;;13.02;1.95;;;;;;;6.46;77.25;102107.97;5000959;28;20030;-64
2022/02/10 16:31:55;;;;;;;4.97;1.83;;;;;;;6.41;76.73;102101.88;4994074;28;20130;-65
2022/02/10 16:34:21;;;;;;;7.57;1.98;;;;;;;6.31;76.94;102101.06;5024733;28;20474;-63
2022/02/10 16:36:47;;;;;;;8.52;2.13;;;;;;;6.26;76.83;102104.63;5034137;28;20032;-65
2022/02/10 16:39:18;;;;;;;9.73;2.35;;;;;;;6.22;77.65;102101.97;5015354;28;20022;-64
2022/02/10 16:41:44;;;;;;;8.00;1.88;;;;;;;6.22;77.05;102107.25;5034709;28;20053;-65
2022/02/10 16:44:10;;;;;;;14.38;2.53;;;;;;;6.18;77.61;102105.53;5032720;28;20104;-63
2022/02/10 16:46:35;;;;;;;10.07;2.55;;;;;;;6.14;78.13;102105.53;5034237;28;20133;-65
2022/02/10 16:49:01;;;;;;;7.60;1.75;;;;;;;6.10;78.56;102106.44;5015134;28;20034;-64
2022/02/10 16:51:27;;;;;;;7.65;1.92;;;;;;;6.07;78.31;102105.59;5018755;28;20458;-64
2022/02/10 16:54:00;;;;;;;11.70;2.30;;;;;;;6.03;78.59;102110.88;5041424;28;20390;-64
2022/02/10 16:56:34;;;;;;;8.65;2.17;;;;;;;5.98;78.35;102113.53;5032297;28;20030;-66
2022/02/10 17:20:38;;;;;;;11.40;1.80;;;;;;;5.88;78.31;102122.31;4972616;28;20450;-65
2022/02/10 17:25:57;;;;;;;9.85;1.90;;;;;;;5.81;77.02;102124.09;4972955;28;20045;-66
2022/02/10 17:28:22;;;;;;;12.10;2.00;;;;;;;5.80;77.08;102116.22;4959746;28;20031;-65
2022/02/10 17:33:32;;;;;;;5.47;1.60;;;;;;;5.80;76.01;102124.97;4972298;28;20106;-64
2022/02/10 17:36:09;;;;;;;7.22;1.55;;;;;;;5.76;77.66;102136.38;4955262;28;20039;-64
2022/02/10 17:41:44;;;;;;;7.65;2.10;;;;;;;5.69;78.19;102147.78;4989633;28;20049;-65
2022/02/10 17:46:59;;;;;;;12.00;2.20;;;;;;;5.57;78.70;102141.69;4992095;28;20057;-65
2022/02/10 17:52:17;;;;;;;11.10;1.55;;;;;;;5.66;77.79;102140.78;5004599;28;20045;-64
2022/02/10 17:54:44;;;;;;;7.28;1.90;;;;;;;5.66;79.26;102138.16;5014644;28;20026;-65
2022/02/10 17:57:10;;;;;;;14.52;1.92;;;;;;;5.64;78.26;102144.31;5013518;28;20034;-66
2022/02/10 17:59:36;;;;;;;6.53;1.95;;;;;;;5.66;78.11;102132.91;5014010;28;20459;-65
2022/02/10 18:02:02;;;;;;;12.68;1.83;;;;;;;5.67;78.19;102147.78;5013340;28;20022;-65
2022/02/10 18:04:27;;;;;;;5.13;1.77;;;;;;;5.66;78.53;102156.56;5025683;28;20057;-65
2022/02/10 18:06:55;;;;;;;9.20;1.60;;;;;;;5.63;79.10;102143.44;5024923;28;20084;-65
2022/02/10 18:14:36;;;;;;;7.65;1.92;;;;;;;5.73;78.20;102153.03;5019288;28;20029;-64
2022/02/10 18:17:12;;;;;;;9.85;1.80;;;;;;;5.78;77.94;102149.50;5020845;28;20030;-64
2022/02/10 18:19:46;;;;;;;10.43;2.10;;;;;;;5.80;78.11;102142.50;5029361;28;20029;-71
2022/02/10 18:27:38;;;;;;;8.90;2.22;;;;;;;5.83;78.71;102142.47;5045419;28;20078;-68
2022/02/10 18:54:33;;;;;;;9.70;2.33;;;;;;;5.80;81.14;102161.78;5050527;28;20043;-68
2022/02/10 19:08:08;;;;;;;11.10;2.20;;;;;;;5.77;83.76;102150.38;4914028;29;20146;-69
2022/02/10 19:10:35;;;;;;;6.35;1.83;;;;;;;5.67;83.72;102160.94;4913341;29;20045;-68
2022/02/10 19:13:01;;;;;;;9.02;2.08;;;;;;;5.70;83.84;102160.94;4907018;29;20036;-62
2022/02/10 19:15:33;;;;;;;8.95;2.25;;;;;;;5.71;84.03;102157.41;4907242;29;20040;-68
2022/02/10 19:18:00;;;;;;;;;;;;;;;5.67;84.75;102155.69;4913664;29;20036;-68
2022/02/10 19:20:26;;;;;;;8.88;2.28;;;;;;;5.62;84.98;102156.59;4913670;29;19919;-64
2022/02/10 19:22:52;;;;;;;5.47;2.30;;;;;;;5.64;84.02;102152.19;4910831;29;20141;-65
2022/02/10 19:25:19;;;;;;;6.82;2.10;;;;;;;5.63;84.64;102161.84;4916988;29;20087;-69
2022/02/10 19:27:45;;;;;;;7.32;1.80;;;;;;;5.57;85.08;102164.47;4917834;29;20092;-69
2022/02/10 19:30:12;;;;;;;12.50;2.10;;;;;;;5.55;85.60;102153.09;4917043;29;20233;-67
2022/02/10 19:32:43;;;;;;;8.82;2.50;;;;;;;5.52;85.09;102161.84;4909731;29;20453;-68
2022/02/10 19:35:09;;;;;;;11.23;1.95;;;;;;;5.50;85.70;102163.63;4936693;29;20459;-69
2022/02/10 19:37:34;;;;;;;12.93;3.05;;;;;;;5.49;85.46;102167.13;4935169;29;20878;-69
2022/02/10 19:40:02;;;;;;;7.63;2.45;;;;;;;5.47;85.49;102153.09;4935624;29;20114;-66
2022/02/10 19:42:31;;;;;;;6.50;1.90;;;;;;;5.44;85.09;102162.78;4945625;28;20123;-65
2022/02/10 19:45:00;;;;;;;9.10;1.75;;;;;;;5.48;84.82;102162.75;5036998;28;20085;-64
2022/02/10 19:47:29;;;;;;;8.07;2.00;;;;;;;5.48;84.64;102160.09;5034626;28;20029;-63
2022/02/10 19:49:55;;;;;;;8.35;2.33;;;;;;;5.50;84.95;102152.22;5032008;28;20079;-65
2022/02/10 19:52:21;;;;;;;12.27;2.53;;;;;;;5.51;84.86;102161.84;5035863;28;20561;-64
2022/02/10 19:54:51;;;;;;;12.20;2.60;;;;;;;5.50;85.01;102162.72;5038164;28;20047;-64
2022/02/10 19:57:18;;;;;;;8.73;2.33;;;;;;;5.48;84.20;102162.75;5036819;28;20498;-64
2022/02/10 19:59:44;;;;;;;9.80;2.22;;;;;;;5.46;84.96;102171.50;5035289;28;20385;-63
2022/02/10 20:02:10;;;;;;;13.63;2.22;;;;;;;5.45;84.06;102170.63;5035206;28;20030;-64
2022/02/10 20:04:36;;;;;;;8.82;1.85;;;;;;;5.38;84.59;102167.16;5036487;28;20025;-64
2022/02/10 20:07:02;;;;;;;9.40;1.98;;;;;;;5.40;84.21;102167.16;5045945;28;20036;-67
2022/02/10 20:09:27;;;;;;;8.93;1.88;;;;;;;5.41;83.86;102167.13;5038821;28;20030;-65
2022/02/10 20:11:54;;;;;;;11.00;2.00;;;;;;;5.48;83.81;102169.75;5034939;28;20017;-63
2022/02/10 20:14:21;;;;;;;12.82;2.60;;;;;;;5.50;84.28;102165.34;5035324;28;20037;-64
2022/02/10 20:16:47;;;;;;;8.60;1.92;;;;;;;5.54;83.86;102170.63;5035092;28;20021;-66
2022/02/10 20:19:13;;;;;;;8.30;1.92;;;;;;;5.61;82.72;102168.84;5035309;28;20108;-63
2022/02/10 20:21:38;;;;;;;9.13;2.10;;;;;;;5.64;83.22;102160.97;5035090;28;20064;-67
2022/02/10 20:24:04;;;;;;;7.70;2.10;;;;;;;5.64;82.83;102167.94;5034496;28;20040;-63
2022/02/10 20:26:29;;;;;;;6.90;2.20;;;;;;;5.63;81.32;102172.34;5036067;28;20038;-65
2022/02/10 20:28:55;;;;;;;8.65;1.90;;;;;;;5.54;82.21;102170.63;5034774;28;20087;-65
2022/02/10 20:31:21;;;;;;;6.80;2.20;;;;;;;5.51;82.52;102168.00;5034144;28;20018;-62
2022/02/10 20:33:46;;;;;;;6.63;1.88;;;;;;;5.43;82.53;102169.75;5032579;28;20044;-63
2022/02/10 20:36:12;;;;;;;13.75;1.92;;;;;;;5.39;81.41;102175.91;5035711;28;20140;-63
2022/02/10 20:38:41;;;;;;;6.15;2.00;;;;;;;5.39;80.33;102182.00;5032502;28;20025;-64
2022/02/10 20:41:11;;;;;;;11.30;2.45;;;;;;;5.41;79.50;102188.16;5034911;28;20026;-65
2022/02/10 20:43:37;;;;;;;10.25;1.80;;;;;;;5.44;78.86;102174.13;5028582;28;20052;-63
2022/02/10 20:46:06;;;;;;;12.68;2.30;;;;;;;5.41;79.08;102163.66;5041002;28;20045;-65
2022/02/10 20:48:35;;;;;;;6.47;1.80;;;;;;;5.38;79.11;102167.16;5035736;28;20523;-63
2022/02/10 20:51:01;;;;;;;16.85;2.40;;;;;;;5.30;79.62;102162.78;5034533;28;20087;-65
2022/02/10 20:53:29;;;;;;;9.73;1.70;;;;;;;5.31;79.34;102168.03;5034677;28;20589;-64
2022/02/10 20:55:57;;;;;;;5.53;1.75;;;;;;;5.28;80.06;102162.81;5034517;28;20022;-64
2022/02/10 20:58:25;;;;;;;10.88;2.45;;;;;;;5.23;79.14;102162.78;5035047;28;20021;-64
2022/02/10 21:00:52;;;;;;;6.15;2.00;;;;;;;5.26;78.18;102167.16;5034056;28;20492;-64
2022/02/10 21:03:22;;;;;;;6.30;1.73;;;;;;;5.23;79.09;102178.56;5033817;28;20033;-65
2022/02/10 21:05:48;;;;;;;8.50;2.00;;;;;;;5.15;79.31;102174.19;5033957;28;20033;-65
2022/02/10 21:10:58;;;;;;;12.70;2.20;;;;;;;5.02;79.65;102165.44;5034803;28;20120;-64
2022/02/10 21:13:24;;;;;;;10.95;2.05;;;;;;;5.03;78.25;102164.56;5034097;28;20109;-66
2022/02/10 21:15:50;;;;;;;9.05;1.70;;;;;;;4.98;78.58;102158.44;5034393;28;20033;-64
2022/02/10 21:18:16;;;;;;;8.65;1.95;;;;;;;4.91;78.79;102170.66;5034796;28;20018;-63
2022/02/10 21:20:43;;;;;;;7.60;2.17;;;;;;;4.87;79.05;102153.19;5033229;28;20033;-65
2022/02/10 21:23:33;;;;;;;7.90;1.80;;;;;;;4.86;78.63;102156.66;5034085;28;20056;-63
2022/02/10 21:26:00;;;;;;;13.05;2.28;;;;;;;4.87;78.92;102148.81;5034232;28;20025;-64
2022/02/10 21:28:30;;;;;;;7.30;2.17;;;;;;;4.90;78.26;102151.44;5033847;28;20022;-64
2022/02/10 21:30:59;;;;;;;9.77;2.17;;;;;;;4.87;77.85;102156.69;5034800;28;20112;-63
2022/02/10 21:33:55;;;;;;;7.75;1.73;;;;;;;4.92;77.66;102151.44;5033761;28;20021;-63
2022/02/10 21:38:49;;;;;;;7.80;1.50;;;;;;;4.85;77.93;102163.69;5033772;28;20037;-64
2022/02/10 21:54:59;;;;;;;6.07;1.85;;;;;;;4.86;78.96;102154.03;5033496;28;20087;-63
2022/02/10 22:00:04;;;;;;;7.90;1.65;;;;;;;4.87;78.50;102145.31;5032907;28;20113;-65
2022/02/10 22:10:25;;;;;;;7.88;2.53;;;;;;;4.84;79.22;102156.69;5032933;28;20048;-64
2022/02/10 22:20:47;;;;;;;9.25;1.90;;;;;;;4.81;79.43;102163.66;5033114;28;20029;-64
2022/02/10 22:23:21;;;;;;;7.78;2.10;;;;;;;4.82;79.27;102168.94;5034230;28;20174;-65
2022/02/10 22:25:48;;;;;;;9.40;2.10;;;;;;;4.95;79.38;102174.16;5031916;28;20385;-65
2022/02/10 22:28:47;;;;;;;7.88;1.83;;;;;;;4.91;78.92;102171.56;5033275;28;20024;-64
2022/02/10 22:31:21;;;;;;;9.18;1.75;;;;;;;5.00;78.45;102162.81;5032007;28;20044;-65
2022/02/10 22:36:23;;;;;;;7.75;1.77;;;;;;;5.15;76.47;102161.03;5031809;28;20025;-65
2022/02/10 22:38:53;;;;;;;9.60;2.35;;;;;;;5.20;76.25;102167.16;5013172;28;20133;-66
2022/02/10 22:41:19;;;;;;;6.75;1.65;;;;;;;5.16;76.89;102165.44;5013222;28;20025;-65
2022/02/10 22:43:47;;;;;;;9.90;2.15;;;;;;;5.10;76.68;102161.03;5020555;28;20037;-64
2022/02/10 22:46:14;;;;;;;9.15;2.08;;;;;;;5.03;77.19;102157.56;5031593;28;20119;-65
2022/02/10 22:48:42;;;;;;;11.70;1.90;;;;;;;4.98;77.05;102161.94;5032294;28;20621;-65
2022/02/10 22:51:07;;;;;;;8.25;1.83;;;;;;;4.93;77.67;102168.94;5032770;28;20458;-67
2022/02/10 22:53:33;;;;;;;9.13;1.80;;;;;;;4.85;77.31;102165.44;5032423;28;20033;-64
2022/02/10 22:55:58;;;;;;;7.28;1.90;;;;;;;4.82;77.61;102168.06;5033380;28;20030;-64
2022/02/10 22:58:24;;;;;;;8.00;1.80;;;;;;;4.82;77.37;102168.06;5032325;28;20029;-65
2022/02/10 23:00:49;;;;;;;6.97;1.77;;;;;;;4.82;76.87;102178.53;5032498;28;20541;-65
2022/02/10 23:03:20;;;;;;;7.70;1.80;;;;;;;4.83;76.54;102170.66;5031624;28;20034;-65
2022/02/10 23:05:46;;;;;;;10.43;2.13;;;;;;;4.82;77.10;102179.44;5033506;28;20033;-65
2022/02/10 23:08:11;;;;;;;15.02;1.98;;;;;;;4.80;77.52;102175.94;5025146;28;20033;-69
2022/02/10 23:10:47;;;;;;;10.82;2.40;;;;;;;4.83;78.00;102162.78;5017630;28;20021;-68
2022/02/10 23:13:15;;;;;;;7.07;1.70;;;;;;;4.87;78.00;102174.16;5012579;28;20478;-68
2022/02/10 23:15:41;;;;;;;14.57;2.60;;;;;;;4.83;78.65;102175.91;5027565;28;20018;-65
2022/02/10 23:18:15;;;;;;;10.95;2.28;;;;;;;4.91;78.30;102179.44;5024413;28;20033;-69
2022/02/10 23:20:42;;;;;;;12.65;2.72;;;;;;;4.95;78.00;102179.44;5012548;28;20026;-68
2022/02/10 23:23:09;;;;;;;12.07;1.98;;;;;;;4.91;78.20;102186.41;5012494;28;20029;-69
2022/02/10 23:25:41;;;;;;;12.05;2.05;;;;;;;4.89;78.70;102189.06;5012696;28;20109;-68
2022/02/10 23:28:17;;;;;;;10.73;2.17;;;;;;;4.96;78.52;102189.06;5049614;28;20040;-68
2022/02/10 23:30:46;;;;;;;13.68;2.83;;;;;;;4.94;79.37;102173.31;5012323;28;20037;-69
2022/02/10 23:33:25;;;;;;;12.73;2.42;;;;;;;4.96;79.87;102181.19;5012609;28;20080;-68
2022/02/10 23:44:03;;;;;;;7.45;2.00;;;;;;;5.26;79.53;102190.81;5049602;28;20079;-66
2022/02/10 23:46:28;;;;;;;14.45;2.42;;;;;;;5.29;79.39;102187.31;5049213;28;20048;-69
2022/02/10 23:48:55;;;;;;;14.13;2.50;;;;;;;5.35;79.34;102184.66;5063852;28;20036;-69
2022/02/10 23:51:25;;;;;;;16.48;2.80;;;;;;;5.33;78.98;102191.66;5049624;28;20025;-69
2022/02/10 23:53:51;;;;;;;12.73;2.30;;;;;;;5.37;79.10;102194.28;5049917;28;20127;-68
2022/02/10 23:56:18;;;;;;;14.13;2.65;;;;;;;5.39;80.07;102189.03;5049719;28;20116;-71
